createdAt,value
2022-10-24T00:00:21.488Z,1017.20
2022-10-24T00:00:52.113Z,1017.27
2022-10-24T00:01:22.696Z,1017.37
2022-10-24T00:01:53.277Z,1017.46
2022-10-24T00:02:23.919Z,1017.59
2022-10-24T00:02:54.570Z,1017.65
2022-10-24T00:03:25.113Z,1017.72
2022-10-24T00:03:55.764Z,1017.76
2022-10-24T00:04:26.382Z,1017.77
2022-10-24T00:04:56.922Z,1017.80
2022-10-24T00:05:27.447Z,1017.82
2022-10-24T00:05:58.029Z,1017.85
2022-10-24T00:06:28.599Z,1017.83
2022-10-24T00:06:59.168Z,1017.77
2022-10-24T00:07:29.747Z,1017.77
2022-10-24T00:08:00.358Z,1017.77
2022-10-24T00:08:30.924Z,1017.74
2022-10-24T00:09:01.504Z,1017.76
2022-10-24T00:09:32.077Z,1017.75
2022-10-24T00:10:02.619Z,1017.76
2022-10-24T00:11:02.996Z,1017.69
2022-10-24T00:11:34.602Z,1017.64
2022-10-24T00:12:05.163Z,1017.64
2022-10-24T00:12:35.756Z,1017.60
2022-10-24T00:13:06.353Z,1017.58
2022-10-24T00:13:36.907Z,1017.52
2022-10-24T00:14:07.463Z,1017.48
2022-10-24T00:14:38.032Z,1017.48
2022-10-24T00:15:08.641Z,1017.47
2022-10-24T00:15:39.179Z,1017.49
2022-10-24T00:16:09.762Z,1017.52
2022-10-24T00:16:40.321Z,1017.54
2022-10-24T00:17:10.884Z,1017.56
2022-10-24T00:17:41.456Z,1017.55
2022-10-24T00:18:12.023Z,1017.56
2022-10-24T00:18:42.600Z,1017.54
2022-10-24T00:19:13.180Z,1017.57
2022-10-24T00:19:43.772Z,1017.50
2022-10-24T00:20:14.330Z,1017.49
2022-10-24T00:20:44.868Z,1017.45
2022-10-24T00:21:15.424Z,1017.46
2022-10-24T00:21:45.990Z,1017.45
2022-10-24T00:22:16.600Z,1017.46
2022-10-24T00:22:47.402Z,1017.47
2022-10-24T00:23:17.988Z,1017.47
2022-10-24T00:23:48.555Z,1017.46
2022-10-24T00:24:19.109Z,1017.42
2022-10-24T00:24:49.642Z,1017.40
2022-10-24T00:25:20.296Z,1017.40
2022-10-24T00:25:50.854Z,1017.40
2022-10-24T00:26:21.409Z,1017.40
2022-10-24T00:26:51.976Z,1017.38
2022-10-24T00:27:22.538Z,1017.33
2022-10-24T00:27:53.117Z,1017.34
2022-10-24T00:28:23.695Z,1017.35
2022-10-24T00:28:54.318Z,1017.29
2022-10-24T00:29:24.917Z,1017.29
2022-10-24T00:29:55.490Z,1017.28
2022-10-24T00:30:26.033Z,1017.24
2022-10-24T00:30:56.563Z,1017.23
2022-10-24T00:31:27.151Z,1017.21
2022-10-24T00:31:57.731Z,1017.21
2022-10-24T00:32:28.300Z,1017.20
2022-10-24T00:32:58.864Z,1017.19
2022-10-24T00:33:29.410Z,1017.21
2022-10-24T00:33:59.983Z,1017.23
2022-10-24T00:34:30.514Z,1017.25
2022-10-24T00:35:01.104Z,1017.30
2022-10-24T00:35:31.658Z,1017.34
2022-10-24T00:36:02.239Z,1017.37
2022-10-24T00:36:32.808Z,1017.36
2022-10-24T00:37:03.362Z,1017.34
2022-10-24T00:37:33.929Z,1017.32
2022-10-24T00:38:04.505Z,1017.31
2022-10-24T00:38:35.061Z,1017.31
2022-10-24T00:39:05.607Z,1017.27
2022-10-24T00:39:36.168Z,1017.26
2022-10-24T00:40:06.741Z,1017.28
2022-10-24T00:40:37.308Z,1017.29
2022-10-24T00:41:07.845Z,1017.30
2022-10-24T00:41:38.399Z,1017.27
2022-10-24T00:42:08.956Z,1017.25
2022-10-24T00:42:39.529Z,1017.29
2022-10-24T00:43:10.125Z,1017.33
2022-10-24T00:43:40.731Z,1017.32
2022-10-24T00:44:11.311Z,1017.34
2022-10-24T00:44:41.894Z,1017.36
2022-10-24T00:45:12.454Z,1017.38
2022-10-24T00:45:43.031Z,1017.39
2022-10-24T00:46:13.607Z,1017.37
2022-10-24T00:46:44.156Z,1017.37
2022-10-24T00:47:14.741Z,1017.36
2022-10-24T00:47:45.654Z,1017.33
2022-10-24T00:48:16.295Z,1017.32
2022-10-24T00:48:46.867Z,1017.33
2022-10-24T00:49:17.475Z,1017.31
2022-10-24T00:49:48.030Z,1017.33
2022-10-24T00:50:18.632Z,1017.33
2022-10-24T00:50:49.169Z,1017.30
2022-10-24T00:51:19.739Z,1017.29
2022-10-24T00:51:50.399Z,1017.28
2022-10-24T00:52:20.937Z,1017.28
2022-10-24T00:52:51.522Z,1017.27
2022-10-24T00:53:22.079Z,1017.27
2022-10-24T00:53:52.765Z,1017.26
2022-10-24T00:54:23.325Z,1017.26
2022-10-24T00:54:53.866Z,1017.25
2022-10-24T00:55:24.438Z,1017.24
2022-10-24T00:55:55.003Z,1017.22
2022-10-24T00:56:25.589Z,1017.22
2022-10-24T00:56:56.155Z,1017.21
2022-10-24T00:57:26.717Z,1017.20
2022-10-24T00:57:57.270Z,1017.17
2022-10-24T00:58:27.856Z,1017.13
2022-10-24T00:58:58.436Z,1017.10
2022-10-24T00:59:28.982Z,1017.06
2022-10-24T00:59:59.528Z,1017.05
2022-10-24T01:00:30.140Z,1017.03
2022-10-24T01:01:00.848Z,1016.99
2022-10-24T01:01:31.631Z,1016.98
2022-10-24T01:02:02.263Z,1016.95
2022-10-24T01:02:32.808Z,1016.95
2022-10-24T01:03:03.377Z,1016.94
2022-10-24T01:03:33.923Z,1016.94
2022-10-24T01:04:04.459Z,1016.95
2022-10-24T01:04:35.035Z,1016.97
2022-10-24T01:05:05.600Z,1016.97
2022-10-24T01:05:36.211Z,1016.95
2022-10-24T01:06:06.794Z,1016.92
2022-10-24T01:06:37.345Z,1016.89
2022-10-24T01:07:07.915Z,1016.86
2022-10-24T01:07:38.469Z,1016.84
2022-10-24T01:08:09.058Z,1016.79
2022-10-24T01:08:39.595Z,1016.76
2022-10-24T01:09:10.141Z,1016.74
2022-10-24T01:09:40.757Z,1016.70
2022-10-24T01:10:11.321Z,1016.67
2022-10-24T01:10:41.898Z,1016.66
2022-10-24T01:11:12.503Z,1016.64
2022-10-24T01:11:43.056Z,1016.62
2022-10-24T01:12:13.613Z,1016.62
2022-10-24T01:12:44.647Z,1016.61
2022-10-24T01:13:14.834Z,1016.61
2022-10-24T01:13:45.414Z,1016.62
2022-10-24T01:14:15.966Z,1016.65
2022-10-24T01:14:46.583Z,1016.67
2022-10-24T01:15:17.138Z,1016.69
2022-10-24T01:15:47.728Z,1016.70
2022-10-24T01:16:18.289Z,1016.70
2022-10-24T01:16:48.877Z,1016.69
2022-10-24T01:17:19.464Z,1016.70
2022-10-24T01:17:50.028Z,1016.71
2022-10-24T01:18:20.606Z,1016.72
2022-10-24T01:18:51.188Z,1016.73
2022-10-24T01:19:21.723Z,1016.74
2022-10-24T01:19:52.297Z,1016.73
2022-10-24T01:20:22.880Z,1016.76
2022-10-24T01:20:53.459Z,1016.79
2022-10-24T01:21:24.015Z,1016.81
2022-10-24T01:21:54.600Z,1016.84
2022-10-24T01:22:25.165Z,1016.85
2022-10-24T01:22:55.734Z,1016.85
2022-10-24T01:23:26.316Z,1016.88
2022-10-24T01:23:56.904Z,1016.88
2022-10-24T01:24:27.486Z,1016.88
2022-10-24T01:24:58.062Z,1016.86
2022-10-24T01:25:28.639Z,1016.87
2022-10-24T01:25:59.262Z,1016.88
2022-10-24T01:26:29.812Z,1016.88
2022-10-24T01:27:00.445Z,1016.87
2022-10-24T01:27:31.043Z,1016.86
2022-10-24T01:28:01.619Z,1016.87
2022-10-24T01:28:32.181Z,1016.86
2022-10-24T01:29:02.727Z,1016.84
2022-10-24T01:29:33.309Z,1016.82
2022-10-24T01:30:03.886Z,1016.81
2022-10-24T01:30:34.422Z,1016.79
2022-10-24T01:31:04.988Z,1016.77
2022-10-24T01:31:35.560Z,1016.78
2022-10-24T01:32:06.098Z,1016.78
2022-10-24T01:32:36.658Z,1016.78
2022-10-24T01:33:07.229Z,1016.80
2022-10-24T01:33:37.825Z,1016.81
2022-10-24T01:34:08.358Z,1016.81
2022-10-24T01:34:38.927Z,1016.79
2022-10-24T01:35:09.456Z,1016.78
2022-10-24T01:35:40.038Z,1016.77
2022-10-24T01:36:10.594Z,1016.79
2022-10-24T01:36:41.206Z,1016.79
2022-10-24T01:37:12.572Z,1016.78
2022-10-24T01:37:43.094Z,1016.77
2022-10-24T01:38:13.784Z,1016.78
2022-10-24T01:38:44.339Z,1016.78
2022-10-24T01:39:14.902Z,1016.77
2022-10-24T01:39:45.481Z,1016.76
2022-10-24T01:40:16.071Z,1016.75
2022-10-24T01:40:46.669Z,1016.76
2022-10-24T01:41:17.250Z,1016.75
2022-10-24T01:41:47.836Z,1016.74
2022-10-24T01:42:18.387Z,1016.72
2022-10-24T01:42:48.946Z,1016.70
2022-10-24T01:43:19.526Z,1016.70
2022-10-24T01:43:50.182Z,1016.71
2022-10-24T01:44:20.784Z,1016.72
2022-10-24T01:44:51.364Z,1016.72
2022-10-24T01:45:21.921Z,1016.70
2022-10-24T01:45:52.498Z,1016.69
2022-10-24T01:46:23.070Z,1016.69
2022-10-24T01:46:53.653Z,1016.70
2022-10-24T01:47:24.223Z,1016.69
2022-10-24T01:47:54.773Z,1016.67
2022-10-24T01:48:25.365Z,1016.65
2022-10-24T01:48:55.922Z,1016.64
2022-10-24T01:49:26.488Z,1016.64
2022-10-24T01:49:57.087Z,1016.62
2022-10-24T01:50:27.671Z,1016.62
2022-10-24T01:50:58.267Z,1016.61
2022-10-24T01:51:28.872Z,1016.60
2022-10-24T01:51:59.490Z,1016.58
2022-10-24T01:52:30.047Z,1016.56
2022-10-24T01:53:00.609Z,1016.57
2022-10-24T01:53:31.161Z,1016.57
2022-10-24T01:54:01.724Z,1016.58
2022-10-24T01:54:32.298Z,1016.60
2022-10-24T01:55:02.865Z,1016.61
2022-10-24T01:55:33.438Z,1016.62
2022-10-24T01:56:04.017Z,1016.62
2022-10-24T01:56:34.570Z,1016.63
2022-10-24T01:57:05.168Z,1016.62
2022-10-24T01:57:35.749Z,1016.61
2022-10-24T01:58:06.320Z,1016.59
2022-10-24T01:58:36.904Z,1016.57
2022-10-24T01:59:07.492Z,1016.56
2022-10-24T01:59:38.059Z,1016.57
2022-10-24T02:00:08.683Z,1016.58
2022-10-24T02:00:39.454Z,1016.59
2022-10-24T02:01:10.187Z,1016.60
2022-10-24T02:01:40.836Z,1016.60
2022-10-24T02:02:11.434Z,1016.60
2022-10-24T02:02:42.266Z,1016.63
2022-10-24T02:03:12.919Z,1016.64
2022-10-24T02:03:43.504Z,1016.64
2022-10-24T02:04:14.085Z,1016.65
2022-10-24T02:04:44.649Z,1016.64
2022-10-24T02:05:15.203Z,1016.63
2022-10-24T02:05:45.739Z,1016.61
2022-10-24T02:06:16.313Z,1016.57
2022-10-24T02:06:46.928Z,1016.53
2022-10-24T02:07:17.472Z,1016.51
2022-10-24T02:07:48.048Z,1016.49
2022-10-24T02:08:18.676Z,1016.48
2022-10-24T02:08:49.238Z,1016.45
2022-10-24T02:09:19.824Z,1016.44
2022-10-24T02:09:50.389Z,1016.43
2022-10-24T02:10:20.954Z,1016.43
2022-10-24T02:10:51.649Z,1016.41
2022-10-24T02:11:22.184Z,1016.39
2022-10-24T02:11:52.783Z,1016.36
2022-10-24T02:12:23.351Z,1016.35
2022-10-24T02:12:53.926Z,1016.33
2022-10-24T02:13:24.485Z,1016.31
2022-10-24T02:13:55.080Z,1016.29
2022-10-24T02:14:25.667Z,1016.30
2022-10-24T02:14:56.233Z,1016.28
2022-10-24T02:15:26.822Z,1016.27
2022-10-24T02:15:57.379Z,1016.28
2022-10-24T02:16:27.987Z,1016.28
2022-10-24T02:16:58.581Z,1016.29
2022-10-24T02:17:59.759Z,1016.32
2022-10-24T02:18:30.334Z,1016.32
2022-10-24T02:19:00.903Z,1016.32
2022-10-24T02:19:31.513Z,1016.33
2022-10-24T02:20:02.073Z,1016.33
2022-10-24T02:20:32.641Z,1016.31
2022-10-24T02:21:03.215Z,1016.32
2022-10-24T02:21:33.776Z,1016.33
2022-10-24T02:22:04.341Z,1016.35
2022-10-24T02:22:34.881Z,1016.34
2022-10-24T02:23:05.481Z,1016.33
2022-10-24T02:23:36.070Z,1016.33
2022-10-24T02:24:06.635Z,1016.35
2022-10-24T02:24:37.205Z,1016.37
2022-10-24T02:25:07.786Z,1016.36
2022-10-24T02:25:38.458Z,1016.34
2022-10-24T02:26:09.045Z,1016.36
2022-10-24T02:26:39.628Z,1016.36
2022-10-24T02:27:10.221Z,1016.38
2022-10-24T02:27:40.762Z,1016.40
2022-10-24T02:28:11.357Z,1016.41
2022-10-24T02:28:41.953Z,1016.40
2022-10-24T02:29:12.550Z,1016.38
2022-10-24T02:29:43.125Z,1016.38
2022-10-24T02:30:13.713Z,1016.38
2022-10-24T02:30:44.280Z,1016.38
2022-10-24T02:31:14.862Z,1016.39
2022-10-24T02:31:45.443Z,1016.41
2022-10-24T02:32:16.009Z,1016.43
2022-10-24T02:32:46.652Z,1016.43
2022-10-24T02:33:17.220Z,1016.46
2022-10-24T02:33:47.813Z,1016.49
2022-10-24T02:34:18.396Z,1016.50
2022-10-24T02:34:48.931Z,1016.51
2022-10-24T02:35:19.515Z,1016.51
2022-10-24T02:35:50.100Z,1016.53
2022-10-24T02:36:20.685Z,1016.54
2022-10-24T02:36:51.251Z,1016.53
2022-10-24T02:37:21.847Z,1016.53
2022-10-24T02:37:52.411Z,1016.54
2022-10-24T02:38:22.974Z,1016.52
2022-10-24T02:38:53.566Z,1016.53
2022-10-24T02:39:24.210Z,1016.51
2022-10-24T02:39:54.772Z,1016.51
2022-10-24T02:40:25.359Z,1016.52
2022-10-24T02:40:55.952Z,1016.54
2022-10-24T02:41:26.552Z,1016.54
2022-10-24T02:41:57.105Z,1016.53
2022-10-24T02:42:58.238Z,1016.49
2022-10-24T02:43:28.832Z,1016.48
2022-10-24T02:43:59.412Z,1016.49
2022-10-24T02:44:29.972Z,1016.48
2022-10-24T02:45:00.515Z,1016.47
2022-10-24T02:45:31.099Z,1016.48
2022-10-24T02:46:01.674Z,1016.47
2022-10-24T02:46:32.237Z,1016.48
2022-10-24T02:47:02.818Z,1016.48
2022-10-24T02:47:33.396Z,1016.47
2022-10-24T02:48:03.979Z,1016.49
2022-10-24T02:48:34.570Z,1016.50
2022-10-24T02:49:05.138Z,1016.48
2022-10-24T02:49:35.709Z,1016.48
2022-10-24T02:50:06.297Z,1016.49
2022-10-24T02:50:36.873Z,1016.52
2022-10-24T02:51:07.460Z,1016.57
2022-10-24T02:51:38.037Z,1016.58
2022-10-24T02:52:08.601Z,1016.56
2022-10-24T02:52:39.192Z,1016.55
2022-10-24T02:53:09.783Z,1016.54
2022-10-24T02:53:40.348Z,1016.52
2022-10-24T02:54:10.896Z,1016.53
2022-10-24T02:54:41.454Z,1016.52
2022-10-24T02:55:12.040Z,1016.51
2022-10-24T02:55:42.578Z,1016.50
2022-10-24T02:56:13.168Z,1016.50
2022-10-24T02:56:43.732Z,1016.50
2022-10-24T02:57:14.297Z,1016.51
2022-10-24T02:57:44.900Z,1016.51
2022-10-24T02:58:15.485Z,1016.51
2022-10-24T02:58:46.042Z,1016.52
2022-10-24T02:59:16.620Z,1016.52
2022-10-24T02:59:47.198Z,1016.53
2022-10-24T03:00:17.790Z,1016.51
2022-10-24T03:00:48.422Z,1016.49
2022-10-24T03:01:19.070Z,1016.50
2022-10-24T03:01:49.742Z,1016.50
2022-10-24T03:02:20.349Z,1016.52
2022-10-24T03:02:50.897Z,1016.52
2022-10-24T03:03:21.537Z,1016.53
2022-10-24T03:03:52.061Z,1016.54
2022-10-24T03:04:22.609Z,1016.53
2022-10-24T03:04:53.190Z,1016.53
2022-10-24T03:05:23.761Z,1016.52
2022-10-24T03:05:54.359Z,1016.50
2022-10-24T03:06:24.907Z,1016.49
2022-10-24T03:06:55.482Z,1016.50
2022-10-24T03:07:26.100Z,1016.49
2022-10-24T03:07:56.682Z,1016.50
2022-10-24T03:08:27.227Z,1016.50
2022-10-24T03:08:57.807Z,1016.50
2022-10-24T03:09:28.376Z,1016.51
2022-10-24T03:09:58.964Z,1016.51
2022-10-24T03:10:29.507Z,1016.51
2022-10-24T03:11:00.097Z,1016.52
2022-10-24T03:11:30.626Z,1016.52
2022-10-24T03:12:01.195Z,1016.53
2022-10-24T03:12:31.797Z,1016.56
2022-10-24T03:13:02.351Z,1016.54
2022-10-24T03:13:32.933Z,1016.51
2022-10-24T03:14:03.507Z,1016.49
2022-10-24T03:14:34.087Z,1016.50
2022-10-24T03:15:04.681Z,1016.51
2022-10-24T03:15:35.285Z,1016.53
2022-10-24T03:16:07.809Z,1016.53
2022-10-24T03:16:36.690Z,1016.55
2022-10-24T03:17:07.224Z,1016.58
2022-10-24T03:17:37.771Z,1016.61
2022-10-24T03:18:08.346Z,1016.62
2022-10-24T03:18:38.974Z,1016.62
2022-10-24T03:19:09.560Z,1016.63
2022-10-24T03:19:40.101Z,1016.63
2022-10-24T03:20:10.629Z,1016.64
2022-10-24T03:20:41.224Z,1016.65
2022-10-24T03:21:11.774Z,1016.63
2022-10-24T03:21:42.347Z,1016.64
2022-10-24T03:22:12.935Z,1016.65
2022-10-24T03:22:43.519Z,1016.67
2022-10-24T03:23:14.100Z,1016.65
2022-10-24T03:23:44.659Z,1016.66
2022-10-24T03:24:19.582Z,1016.67
2022-10-24T03:24:55.103Z,1016.66
2022-10-24T03:25:16.836Z,1016.69
2022-10-24T03:25:47.395Z,1016.71
2022-10-24T03:26:17.923Z,1016.73
2022-10-24T03:26:48.481Z,1016.77
2022-10-24T03:27:19.040Z,1016.80
2022-10-24T03:27:49.568Z,1016.82
2022-10-24T03:28:20.130Z,1016.82
2022-10-24T03:28:50.698Z,1016.83
2022-10-24T03:29:21.238Z,1016.83
2022-10-24T03:29:51.798Z,1016.85
2022-10-24T03:30:22.344Z,1016.85
2022-10-24T03:30:52.887Z,1016.88
2022-10-24T03:31:23.443Z,1016.91
2022-10-24T03:31:53.984Z,1016.94
2022-10-24T03:32:24.515Z,1016.93
2022-10-24T03:32:55.108Z,1016.94
2022-10-24T03:33:25.660Z,1016.95
2022-10-24T03:33:56.212Z,1016.92
2022-10-24T03:34:26.777Z,1016.91
2022-10-24T03:34:57.324Z,1016.90
2022-10-24T03:35:27.890Z,1016.91
2022-10-24T03:35:58.465Z,1016.92
2022-10-24T03:36:29.045Z,1016.96
2022-10-24T03:36:59.566Z,1016.97
2022-10-24T03:37:30.124Z,1017.00
2022-10-24T03:38:00.685Z,1016.99
2022-10-24T03:38:31.251Z,1017.00
2022-10-24T03:39:01.791Z,1017.03
2022-10-24T03:39:32.370Z,1017.05
2022-10-24T03:40:02.922Z,1017.04
2022-10-24T03:40:33.551Z,1017.07
2022-10-24T03:41:04.080Z,1017.07
2022-10-24T03:41:34.640Z,1017.06
2022-10-24T03:42:05.207Z,1017.06
2022-10-24T03:42:35.795Z,1017.05
2022-10-24T03:43:06.346Z,1017.03
2022-10-24T03:43:36.921Z,1017.01
2022-10-24T03:44:07.507Z,1016.99
2022-10-24T03:44:38.087Z,1016.96
2022-10-24T03:45:08.678Z,1016.95
2022-10-24T03:45:39.249Z,1016.94
2022-10-24T03:46:09.781Z,1016.91
2022-10-24T03:46:40.361Z,1016.90
2022-10-24T03:47:10.955Z,1016.88
2022-10-24T03:47:41.532Z,1016.88
2022-10-24T03:48:12.061Z,1016.86
2022-10-24T03:48:42.617Z,1016.84
2022-10-24T03:49:13.130Z,1016.83
2022-10-24T03:49:43.667Z,1016.81
2022-10-24T03:50:14.264Z,1016.81
2022-10-24T03:50:44.829Z,1016.80
2022-10-24T03:51:15.411Z,1016.80
2022-10-24T03:51:45.996Z,1016.78
2022-10-24T03:52:16.552Z,1016.78
2022-10-24T03:52:47.521Z,1016.76
2022-10-24T03:53:17.769Z,1016.73
2022-10-24T03:53:48.364Z,1016.73
2022-10-24T03:54:18.884Z,1016.73
2022-10-24T03:54:49.471Z,1016.73
2022-10-24T03:55:20.112Z,1016.73
2022-10-24T03:55:50.688Z,1016.71
2022-10-24T03:56:21.318Z,1016.69
2022-10-24T03:56:51.881Z,1016.71
2022-10-24T03:57:22.454Z,1016.73
2022-10-24T03:57:52.995Z,1016.78
2022-10-24T03:58:23.580Z,1016.81
2022-10-24T03:58:54.152Z,1016.83
2022-10-24T03:59:24.718Z,1016.83
2022-10-24T03:59:55.298Z,1016.84
2022-10-24T04:00:25.863Z,1016.84
2022-10-24T04:00:56.472Z,1016.84
2022-10-24T04:01:27.160Z,1016.85
2022-10-24T04:01:57.839Z,1016.87
2022-10-24T04:02:28.408Z,1016.88
2022-10-24T04:02:59.005Z,1016.89
2022-10-24T04:03:29.567Z,1016.90
2022-10-24T04:04:00.105Z,1016.93
2022-10-24T04:04:30.680Z,1016.95
2022-10-24T04:05:01.248Z,1016.96
2022-10-24T04:05:31.907Z,1016.98
2022-10-24T04:06:02.497Z,1016.98
2022-10-24T04:06:36.349Z,1016.97
2022-10-24T04:07:03.665Z,1016.97
2022-10-24T04:07:34.266Z,1016.97
2022-10-24T04:08:04.835Z,1016.98
2022-10-24T04:08:35.404Z,1016.98
2022-10-24T04:09:05.999Z,1016.98
2022-10-24T04:09:36.552Z,1016.98
2022-10-24T04:10:07.136Z,1016.98
2022-10-24T04:10:37.696Z,1016.96
2022-10-24T04:11:08.249Z,1016.95
2022-10-24T04:11:38.814Z,1016.93
2022-10-24T04:12:09.400Z,1016.93
2022-10-24T04:12:39.983Z,1016.91
2022-10-24T04:13:10.574Z,1016.91
2022-10-24T04:13:41.153Z,1016.93
2022-10-24T04:14:11.683Z,1016.96
2022-10-24T04:14:42.280Z,1016.99
2022-10-24T04:15:12.895Z,1017.01
2022-10-24T04:15:43.427Z,1017.02
2022-10-24T04:16:13.988Z,1017.03
2022-10-24T04:16:44.542Z,1017.05
2022-10-24T04:17:15.109Z,1017.05
2022-10-24T04:17:46.059Z,1017.05
2022-10-24T04:18:16.288Z,1017.06
2022-10-24T04:18:46.856Z,1017.09
2022-10-24T04:19:17.430Z,1017.09
2022-10-24T04:19:47.997Z,1017.10
2022-10-24T04:20:18.576Z,1017.13
2022-10-24T04:20:49.133Z,1017.15
2022-10-24T04:21:21.804Z,1017.08
2022-10-24T04:21:50.551Z,1017.09
2022-10-24T04:22:51.768Z,1017.10
2022-10-24T04:23:22.345Z,1017.09
2022-10-24T04:23:52.894Z,1017.08
2022-10-24T04:24:23.493Z,1017.11
2022-10-24T04:24:54.060Z,1017.12
2022-10-24T04:25:24.666Z,1017.15
2022-10-24T04:25:55.269Z,1017.17
2022-10-24T04:26:25.837Z,1017.19
2022-10-24T04:26:56.397Z,1017.19
2022-10-24T04:27:26.965Z,1017.15
2022-10-24T04:27:57.553Z,1017.11
2022-10-24T04:28:28.098Z,1017.07
2022-10-24T04:28:58.663Z,1017.06
2022-10-24T04:29:29.229Z,1017.08
2022-10-24T04:29:59.764Z,1017.14
2022-10-24T04:30:30.399Z,1017.12
2022-10-24T04:31:00.957Z,1017.10
2022-10-24T04:31:31.499Z,1017.10
2022-10-24T04:32:02.078Z,1017.10
2022-10-24T04:32:32.653Z,1017.12
2022-10-24T04:33:03.240Z,1017.11
2022-10-24T04:33:33.809Z,1017.11
2022-10-24T04:34:04.344Z,1017.14
2022-10-24T04:34:34.913Z,1017.19
2022-10-24T04:35:05.515Z,1017.20
2022-10-24T04:35:36.064Z,1017.21
2022-10-24T04:36:06.621Z,1017.19
2022-10-24T04:36:37.178Z,1017.21
2022-10-24T04:37:07.751Z,1017.23
2022-10-24T04:37:38.372Z,1017.24
2022-10-24T04:38:08.939Z,1017.23
2022-10-24T04:38:39.473Z,1017.21
2022-10-24T04:39:10.042Z,1017.20
2022-10-24T04:39:40.629Z,1017.20
2022-10-24T04:40:11.183Z,1017.20
2022-10-24T04:40:41.757Z,1017.18
2022-10-24T04:41:12.526Z,1017.16
2022-10-24T04:41:43.096Z,1017.13
2022-10-24T04:42:13.671Z,1017.10
2022-10-24T04:42:44.536Z,1017.09
2022-10-24T04:43:15.212Z,1017.07
2022-10-24T04:43:45.789Z,1017.09
2022-10-24T04:44:16.381Z,1017.09
2022-10-24T04:44:46.947Z,1017.10
2022-10-24T04:45:17.584Z,1017.12
2022-10-24T04:45:48.131Z,1017.14
2022-10-24T04:46:18.711Z,1017.17
2022-10-24T04:46:51.320Z,1017.19
2022-10-24T04:47:50.552Z,1017.22
2022-10-24T04:48:21.205Z,1017.23
2022-10-24T04:48:51.743Z,1017.24
2022-10-24T04:49:22.286Z,1017.24
2022-10-24T04:49:52.873Z,1017.24
2022-10-24T04:50:23.423Z,1017.24
2022-10-24T04:50:53.967Z,1017.24
2022-10-24T04:51:24.563Z,1017.23
2022-10-24T04:51:55.150Z,1017.23
2022-10-24T04:52:25.816Z,1017.22
2022-10-24T04:52:56.349Z,1017.23
2022-10-24T04:53:26.955Z,1017.23
2022-10-24T04:53:57.520Z,1017.23
2022-10-24T04:54:28.081Z,1017.23
2022-10-24T04:54:58.696Z,1017.23
2022-10-24T04:55:29.295Z,1017.22
2022-10-24T04:55:59.945Z,1017.22
2022-10-24T04:56:30.519Z,1017.22
2022-10-24T04:57:01.117Z,1017.21
2022-10-24T04:57:31.699Z,1017.21
2022-10-24T04:58:02.224Z,1017.21
2022-10-24T04:58:32.811Z,1017.21
2022-10-24T04:59:03.400Z,1017.19
2022-10-24T04:59:34.047Z,1017.18
2022-10-24T05:00:04.594Z,1017.16
2022-10-24T05:00:35.175Z,1017.14
2022-10-24T05:01:05.877Z,1017.13
2022-10-24T05:01:36.503Z,1017.13
2022-10-24T05:02:07.239Z,1017.12
2022-10-24T05:02:37.912Z,1017.12
2022-10-24T05:03:08.507Z,1017.12
2022-10-24T05:03:39.103Z,1017.12
2022-10-24T05:04:09.697Z,1017.12
2022-10-24T05:04:40.270Z,1017.13
2022-10-24T05:05:10.857Z,1017.14
2022-10-24T05:05:41.504Z,1017.15
2022-10-24T05:06:12.108Z,1017.15
2022-10-24T05:06:44.917Z,1017.15
2022-10-24T05:07:13.703Z,1017.14
2022-10-24T05:07:44.583Z,1017.13
2022-10-24T05:08:15.258Z,1017.12
2022-10-24T05:08:45.856Z,1017.14
2022-10-24T05:09:16.566Z,1017.14
2022-10-24T05:09:47.279Z,1017.15
2022-10-24T05:10:17.880Z,1017.15
2022-10-24T05:10:48.529Z,1017.16
2022-10-24T05:11:19.189Z,1017.16
2022-10-24T05:11:49.886Z,1017.17
2022-10-24T05:12:20.913Z,1017.18
2022-10-24T05:12:51.570Z,1017.19
2022-10-24T05:13:22.273Z,1017.18
2022-10-24T05:13:52.950Z,1017.18
2022-10-24T05:14:23.495Z,1017.19
2022-10-24T05:14:54.089Z,1017.19
2022-10-24T05:15:24.630Z,1017.21
2022-10-24T05:15:55.169Z,1017.23
2022-10-24T05:16:25.753Z,1017.24
2022-10-24T05:16:56.316Z,1017.27
2022-10-24T05:17:26.857Z,1017.30
2022-10-24T05:17:57.442Z,1017.31
2022-10-24T05:18:28.022Z,1017.35
2022-10-24T05:18:58.612Z,1017.36
2022-10-24T05:19:29.170Z,1017.38
2022-10-24T05:19:59.742Z,1017.41
2022-10-24T05:20:30.383Z,1017.44
2022-10-24T05:21:00.986Z,1017.46
2022-10-24T05:21:31.565Z,1017.46
2022-10-24T05:22:04.026Z,1017.46
2022-10-24T05:22:32.947Z,1017.47
2022-10-24T05:23:03.535Z,1017.48
2022-10-24T05:23:34.093Z,1017.47
2022-10-24T05:24:04.638Z,1017.47
2022-10-24T05:24:35.221Z,1017.47
2022-10-24T05:25:05.795Z,1017.47
2022-10-24T05:25:36.370Z,1017.46
2022-10-24T05:26:06.920Z,1017.49
2022-10-24T05:26:37.540Z,1017.51
2022-10-24T05:27:08.151Z,1017.51
2022-10-24T05:27:38.729Z,1017.53
2022-10-24T05:28:09.284Z,1017.55
2022-10-24T05:28:39.873Z,1017.56
2022-10-24T05:29:10.450Z,1017.56
2022-10-24T05:29:41.020Z,1017.57
2022-10-24T05:30:11.611Z,1017.59
2022-10-24T05:30:42.216Z,1017.60
2022-10-24T05:31:12.793Z,1017.61
2022-10-24T05:31:43.349Z,1017.63
2022-10-24T05:32:13.900Z,1017.61
2022-10-24T05:32:44.734Z,1017.62
2022-10-24T05:33:15.413Z,1017.62
2022-10-24T05:33:45.959Z,1017.61
2022-10-24T05:34:16.561Z,1017.61
2022-10-24T05:34:47.103Z,1017.62
2022-10-24T05:35:17.652Z,1017.61
2022-10-24T05:35:48.167Z,1017.58
2022-10-24T05:36:18.768Z,1017.56
2022-10-24T05:36:49.296Z,1017.57
2022-10-24T05:37:19.904Z,1017.60
2022-10-24T05:37:50.465Z,1017.60
2022-10-24T05:38:20.987Z,1017.60
2022-10-24T05:38:52.042Z,1017.59
2022-10-24T05:39:22.529Z,1017.60
2022-10-24T05:39:53.053Z,1017.62
2022-10-24T05:40:24.070Z,1017.60
2022-10-24T05:40:55.138Z,1017.61
2022-10-24T05:41:25.640Z,1017.63
2022-10-24T05:41:56.160Z,1017.64
2022-10-24T05:42:27.183Z,1017.63
2022-10-24T05:42:57.721Z,1017.64
2022-10-24T05:43:28.736Z,1017.67
2022-10-24T05:43:59.775Z,1017.69
2022-10-24T05:44:30.319Z,1017.66
2022-10-24T05:45:00.829Z,1017.66
2022-10-24T05:45:31.877Z,1017.65
2022-10-24T05:46:02.399Z,1017.65
2022-10-24T05:46:32.912Z,1017.64
2022-10-24T05:47:03.941Z,1017.62
2022-10-24T05:47:34.966Z,1017.63
2022-10-24T05:48:05.481Z,1017.63
2022-10-24T05:48:36.013Z,1017.63
2022-10-24T05:49:06.540Z,1017.65
2022-10-24T05:49:37.538Z,1017.66
2022-10-24T05:50:08.566Z,1017.66
2022-10-24T05:50:39.084Z,1017.67
2022-10-24T05:51:10.128Z,1017.70
2022-10-24T05:51:40.653Z,1017.69
2022-10-24T05:52:11.677Z,1017.67
2022-10-24T05:52:46.234Z,1017.66
2022-10-24T05:53:13.558Z,1017.64
2022-10-24T05:53:44.565Z,1017.61
2022-10-24T05:54:15.082Z,1017.59
2022-10-24T05:55:02.432Z,1017.62
2022-10-24T05:55:18.164Z,1017.59
2022-10-24T05:55:47.399Z,1017.55
2022-10-24T05:56:17.966Z,1017.54
2022-10-24T05:56:48.445Z,1017.56
2022-10-24T05:57:19.013Z,1017.57
2022-10-24T05:57:49.499Z,1017.62
2022-10-24T05:58:20.529Z,1017.62
2022-10-24T05:58:51.566Z,1017.60
2022-10-24T05:59:22.086Z,1017.58
2022-10-24T05:59:53.091Z,1017.55
2022-10-24T06:00:24.134Z,1017.53
2022-10-24T06:00:54.704Z,1017.53
2022-10-24T06:01:25.246Z,1017.49
2022-10-24T06:01:56.013Z,1017.51
2022-10-24T06:02:26.685Z,1017.51
2022-10-24T06:02:57.268Z,1017.55
2022-10-24T06:03:27.784Z,1017.45
2022-10-24T06:03:58.344Z,1017.46
2022-10-24T06:04:28.875Z,1017.42
2022-10-24T06:04:59.883Z,1017.43
2022-10-24T06:05:30.916Z,1017.32
2022-10-24T06:06:01.451Z,1017.37
2022-10-24T06:06:32.010Z,1017.38
2022-10-24T06:07:03.053Z,1017.37
2022-10-24T06:07:33.581Z,1017.39
2022-10-24T06:08:04.622Z,1017.38
2022-10-24T06:08:35.131Z,1017.36
2022-10-24T06:09:05.668Z,1017.35
2022-10-24T06:09:36.182Z,1017.32
2022-10-24T06:10:07.224Z,1017.31
2022-10-24T06:10:37.746Z,1017.28
2022-10-24T06:11:08.373Z,1017.29
2022-10-24T06:11:38.994Z,1017.30
2022-10-24T06:12:10.020Z,1017.30
2022-10-24T06:12:40.529Z,1017.28